createdAt,value
2018-04-06T00:00:58.093Z,1017.65
2018-04-06T00:01:58.044Z,1017.66
2018-04-06T00:02:58.024Z,1017.65
2018-04-06T00:03:58.014Z,1017.65
2018-04-06T00:04:58.020Z,1017.64
2018-04-06T00:05:58.039Z,1017.64
2018-04-06T00:06:58.014Z,1017.65
2018-04-06T00:07:58.728Z,1017.62
2018-04-06T00:08:58.069Z,1017.66
2018-04-06T00:09:58.079Z,1017.67
2018-04-06T00:10:58.032Z,1017.66
2018-04-06T00:11:58.012Z,1017.69
2018-04-06T00:12:58.046Z,1017.74
2018-04-06T00:13:58.003Z,1017.72
2018-04-06T00:14:57.999Z,1017.72
2018-04-06T00:15:58.025Z,1017.76
2018-04-06T00:16:58.026Z,1017.76
2018-04-06T00:17:58.020Z,1017.77
2018-04-06T00:18:58.060Z,1017.80
2018-04-06T00:19:58.010Z,1017.79
2018-04-06T00:20:58.023Z,1017.79
2018-04-06T00:21:58.011Z,1017.83
2018-04-06T00:22:58.035Z,1017.81
2018-04-06T00:23:58.024Z,1017.80
2018-04-06T00:24:58.059Z,1017.80
2018-04-06T00:25:57.977Z,1017.79
2018-04-06T00:26:57.986Z,1017.81
2018-04-06T00:27:57.980Z,1017.81
2018-04-06T00:28:58.054Z,1017.82
2018-04-06T00:29:57.981Z,1017.78
2018-04-06T00:30:58.009Z,1017.84
2018-04-06T00:31:57.992Z,1017.81
2018-04-06T00:32:58.008Z,1017.82
2018-04-06T00:33:58.004Z,1017.82
2018-04-06T00:34:57.998Z,1017.82
2018-04-06T00:35:57.971Z,1017.85
2018-04-06T00:36:57.971Z,1017.83
2018-04-06T00:37:58.053Z,1017.81
2018-04-06T00:38:57.968Z,1017.85
2018-04-06T00:39:57.971Z,1017.86
2018-04-06T00:40:58.078Z,1017.87
2018-04-06T00:41:58.126Z,1017.84
2018-04-06T00:42:57.966Z,1017.84
2018-04-06T00:43:57.983Z,1017.81
2018-04-06T00:44:57.990Z,1017.85
2018-04-06T00:45:57.965Z,1017.86
2018-04-06T00:46:57.958Z,1017.85
2018-04-06T00:47:57.943Z,1017.85
2018-04-06T00:48:57.983Z,1017.87
2018-04-06T00:49:57.996Z,1017.88
2018-04-06T00:50:57.940Z,1017.88
2018-04-06T00:51:57.960Z,1017.90
2018-04-06T00:52:57.950Z,1017.90
2018-04-06T00:53:57.956Z,1017.89
2018-04-06T00:54:57.933Z,1017.89
2018-04-06T00:55:57.954Z,1017.84
2018-04-06T00:56:57.920Z,1017.85
2018-04-06T00:57:57.960Z,1017.85
2018-04-06T00:58:57.939Z,1017.82
2018-04-06T00:59:57.973Z,1017.87
2018-04-06T01:00:57.936Z,1017.83
2018-04-06T01:01:57.945Z,1017.88
2018-04-06T01:02:57.969Z,1017.87
2018-04-06T01:03:57.912Z,1017.90
2018-04-06T01:04:57.913Z,1017.87
2018-04-06T01:05:57.978Z,1017.85
2018-04-06T01:06:57.942Z,1017.84
2018-04-06T01:07:57.941Z,1017.85
2018-04-06T01:08:57.929Z,1017.85
2018-04-06T01:09:57.929Z,1017.81
2018-04-06T01:10:57.901Z,1017.78
2018-04-06T01:11:57.929Z,1017.77
2018-04-06T01:12:58.744Z,1017.77
2018-04-06T01:13:57.896Z,1017.75
2018-04-06T01:14:57.953Z,1017.75
2018-04-06T01:15:57.898Z,1017.75
2018-04-06T01:16:57.926Z,1017.75
2018-04-06T01:17:57.882Z,1017.75
2018-04-06T01:18:57.929Z,1017.75
2018-04-06T01:19:57.904Z,1017.74
2018-04-06T01:20:57.874Z,1017.75
2018-04-06T01:21:57.881Z,1017.75
2018-04-06T01:22:57.884Z,1017.71
2018-04-06T01:23:57.878Z,1017.74
2018-04-06T01:24:57.917Z,1017.73
2018-04-06T01:25:58.740Z,1017.73
2018-04-06T01:26:57.867Z,1017.71
2018-04-06T01:27:57.902Z,1017.72
2018-04-06T01:28:57.869Z,1017.73
2018-04-06T01:29:57.878Z,1017.72
2018-04-06T01:30:57.884Z,1017.73
2018-04-06T01:31:57.886Z,1017.70
2018-04-06T01:32:57.847Z,1017.72
2018-04-06T01:33:57.900Z,1017.69
2018-04-06T01:34:57.845Z,1017.73
2018-04-06T01:35:57.905Z,1017.71
2018-04-06T01:36:57.880Z,1017.72
2018-04-06T01:37:57.869Z,1017.73
2018-04-06T01:38:57.852Z,1017.72
2018-04-06T01:39:57.864Z,1017.70
2018-04-06T01:40:57.842Z,1017.70
2018-04-06T01:41:57.884Z,1017.69
2018-04-06T01:42:57.870Z,1017.73
2018-04-06T01:43:57.847Z,1017.72
2018-04-06T01:44:57.836Z,1017.73
2018-04-06T01:45:57.824Z,1017.68
2018-04-06T01:46:57.828Z,1017.70
2018-04-06T01:47:57.845Z,1017.66
2018-04-06T01:48:57.882Z,1017.65
2018-04-06T01:49:57.840Z,1017.62
2018-04-06T01:50:57.862Z,1017.59
2018-04-06T01:51:57.869Z,1017.56
2018-04-06T01:52:57.879Z,1017.54
2018-04-06T01:53:57.853Z,1017.52
2018-04-06T01:54:57.802Z,1017.51
2018-04-06T01:55:57.838Z,1017.48
2018-04-06T01:56:57.790Z,1017.47
2018-04-06T01:57:57.823Z,1017.45
2018-04-06T01:58:57.854Z,1017.41
2018-04-06T01:59:57.868Z,1017.42
2018-04-06T02:00:57.886Z,1017.45
2018-04-06T02:01:57.815Z,1017.46
2018-04-06T02:02:57.831Z,1017.44
2018-04-06T02:03:57.873Z,1017.45
2018-04-06T02:04:57.813Z,1017.48
2018-04-06T02:05:57.792Z,1017.48
2018-04-06T02:06:57.810Z,1017.49
2018-04-06T02:07:57.830Z,1017.49
2018-04-06T02:08:57.852Z,1017.51
2018-04-06T02:09:57.805Z,1017.54
2018-04-06T02:10:57.776Z,1017.49
2018-04-06T02:11:57.796Z,1017.48
2018-04-06T02:12:57.797Z,1017.47
2018-04-06T02:13:57.788Z,1017.51
2018-04-06T02:14:57.795Z,1017.50
2018-04-06T02:15:57.824Z,1017.51
2018-04-06T02:16:57.771Z,1017.51
2018-04-06T02:17:57.812Z,1017.53
2018-04-06T02:18:57.760Z,1017.54
2018-04-06T02:19:57.797Z,1017.55
2018-04-06T02:20:57.770Z,1017.53
2018-04-06T02:21:57.767Z,1017.56
2018-04-06T02:22:57.773Z,1017.55
2018-04-06T02:23:57.823Z,1017.56
2018-04-06T02:24:57.807Z,1017.56
2018-04-06T02:25:57.850Z,1017.54
2018-04-06T02:26:57.778Z,1017.54
2018-04-06T02:27:57.745Z,1017.52
2018-04-06T02:28:57.771Z,1017.52
2018-04-06T02:29:57.781Z,1017.52
2018-04-06T02:30:57.750Z,1017.53
2018-04-06T02:31:57.742Z,1017.55
2018-04-06T02:32:57.798Z,1017.51
2018-04-06T02:33:57.799Z,1017.48
2018-04-06T02:34:57.749Z,1017.50
2018-04-06T02:35:57.852Z,1017.46
2018-04-06T02:36:57.744Z,1017.48
2018-04-06T02:37:57.749Z,1017.51
2018-04-06T02:38:57.768Z,1017.51
2018-04-06T02:39:57.764Z,1017.55
2018-04-06T02:40:57.805Z,1017.48
2018-04-06T02:41:58.269Z,1017.47
2018-04-06T02:42:57.778Z,1017.46
2018-04-06T02:43:57.873Z,1017.44
2018-04-06T02:44:57.752Z,1017.43
2018-04-06T02:45:57.759Z,1017.43
2018-04-06T02:46:57.728Z,1017.46
2018-04-06T02:47:57.702Z,1017.42
2018-04-06T02:48:57.802Z,1017.38
2018-04-06T02:49:57.692Z,1017.40
2018-04-06T02:50:57.700Z,1017.40
2018-04-06T02:51:57.713Z,1017.43
2018-04-06T02:52:57.733Z,1017.45
2018-04-06T02:53:57.703Z,1017.45
2018-04-06T02:54:57.747Z,1017.43
2018-04-06T02:55:57.746Z,1017.46
2018-04-06T02:56:57.760Z,1017.47
2018-04-06T02:57:57.721Z,1017.48
2018-04-06T02:58:57.685Z,1017.48
2018-04-06T02:59:57.725Z,1017.47
2018-04-06T03:00:57.709Z,1017.46
2018-04-06T03:01:57.674Z,1017.46
2018-04-06T03:02:57.687Z,1017.47
2018-04-06T03:03:57.708Z,1017.47
2018-04-06T03:04:57.737Z,1017.48
2018-04-06T03:05:57.678Z,1017.51
2018-04-06T03:06:57.672Z,1017.51
2018-04-06T03:07:57.709Z,1017.51
2018-04-06T03:08:57.676Z,1017.48
2018-04-06T03:09:57.772Z,1017.53
2018-04-06T03:10:57.689Z,1017.51
2018-04-06T03:11:57.669Z,1017.56
2018-04-06T03:12:57.696Z,1017.58
2018-04-06T03:13:57.647Z,1017.59
2018-04-06T03:14:57.698Z,1017.59
2018-04-06T03:15:57.662Z,1017.61
2018-04-06T03:16:57.665Z,1017.64
2018-04-06T03:17:57.679Z,1017.67
2018-04-06T03:18:57.661Z,1017.69
2018-04-06T03:19:57.656Z,1017.68
2018-04-06T03:20:57.651Z,1017.69
2018-04-06T03:21:57.624Z,1017.72
2018-04-06T03:22:58.255Z,1017.69
2018-04-06T03:23:57.640Z,1017.71
2018-04-06T03:24:57.668Z,1017.67
2018-04-06T03:25:57.654Z,1017.69
2018-04-06T03:26:57.618Z,1017.67
2018-04-06T03:27:57.697Z,1017.68
2018-04-06T03:28:57.634Z,1017.68
2018-04-06T03:29:57.643Z,1017.66
2018-04-06T03:30:57.636Z,1017.68
2018-04-06T03:31:57.643Z,1017.69
2018-04-06T03:32:57.598Z,1017.71
2018-04-06T03:33:57.598Z,1017.66
2018-04-06T03:34:57.588Z,1017.64
2018-04-06T03:35:57.642Z,1017.68
2018-04-06T03:36:57.592Z,1017.67
2018-04-06T03:37:57.660Z,1017.68
2018-04-06T03:38:57.611Z,1017.68
2018-04-06T03:39:57.632Z,1017.70
2018-04-06T03:40:57.613Z,1017.67
2018-04-06T03:41:57.727Z,1017.68
2018-04-06T03:42:57.594Z,1017.71
2018-04-06T03:43:57.652Z,1017.71
2018-04-06T03:44:57.570Z,1017.68
2018-04-06T03:45:57.581Z,1017.67
2018-04-06T03:46:57.572Z,1017.68
2018-04-06T03:47:57.574Z,1017.63
2018-04-06T03:48:57.617Z,1017.64
2018-04-06T03:49:57.690Z,1017.64
2018-04-06T03:50:57.586Z,1017.64
2018-04-06T03:51:57.686Z,1017.65
2018-04-06T03:52:57.583Z,1017.61
2018-04-06T03:53:57.609Z,1017.63
2018-04-06T03:54:57.554Z,1017.61
2018-04-06T03:55:57.612Z,1017.61
2018-04-06T03:56:57.563Z,1017.61
2018-04-06T03:57:57.540Z,1017.61
2018-04-06T03:58:57.557Z,1017.63
2018-04-06T03:59:57.533Z,1017.63
2018-04-06T04:00:57.585Z,1017.63
2018-04-06T04:01:57.550Z,1017.66
2018-04-06T04:02:57.538Z,1017.67
2018-04-06T04:03:57.580Z,1017.66
2018-04-06T04:04:57.552Z,1017.64
2018-04-06T04:05:57.526Z,1017.62
2018-04-06T04:06:57.513Z,1017.65
2018-04-06T04:07:57.588Z,1017.58
2018-04-06T04:08:57.544Z,1017.60
2018-04-06T04:09:57.591Z,1017.58
2018-04-06T04:10:57.538Z,1017.60
2018-04-06T04:11:57.633Z,1017.59
2018-04-06T04:12:57.507Z,1017.55
2018-04-06T04:13:57.538Z,1017.58
2018-04-06T04:14:57.488Z,1017.60
2018-04-06T04:15:57.537Z,1017.58
2018-04-06T04:16:57.502Z,1017.58
2018-04-06T04:17:57.489Z,1017.57
2018-04-06T04:18:57.525Z,1017.57
2018-04-06T04:19:57.537Z,1017.55
2018-04-06T04:20:57.477Z,1017.56
2018-04-06T04:21:57.505Z,1017.53
2018-04-06T04:22:57.499Z,1017.55
2018-04-06T04:23:57.528Z,1017.57
2018-04-06T04:24:57.542Z,1017.53
2018-04-06T04:25:57.494Z,1017.51
2018-04-06T04:26:57.468Z,1017.48
2018-04-06T04:27:57.498Z,1017.45
2018-04-06T04:28:57.537Z,1017.40
2018-04-06T04:29:57.458Z,1017.41
2018-04-06T04:30:57.494Z,1017.38
2018-04-06T04:31:57.505Z,1017.40
2018-04-06T04:32:57.573Z,1017.39
2018-04-06T04:33:57.461Z,1017.46
2018-04-06T04:34:57.475Z,1017.47
2018-04-06T04:35:57.506Z,1017.48
2018-04-06T04:36:57.486Z,1017.55
2018-04-06T04:37:57.448Z,1017.58
2018-04-06T04:38:57.453Z,1017.56
2018-04-06T04:39:57.482Z,1017.59
2018-04-06T04:40:57.456Z,1017.62
2018-04-06T04:41:57.429Z,1017.62
2018-04-06T04:42:57.464Z,1017.62
2018-04-06T04:43:57.447Z,1017.62
2018-04-06T04:44:57.485Z,1017.63
2018-04-06T04:45:57.431Z,1017.64
2018-04-06T04:46:57.447Z,1017.62
2018-04-06T04:47:57.470Z,1017.64
2018-04-06T04:48:57.414Z,1017.67
2018-04-06T04:49:57.436Z,1017.68
2018-04-06T04:50:57.539Z,1017.70
2018-04-06T04:51:57.416Z,1017.69
2018-04-06T04:52:57.415Z,1017.68
2018-04-06T04:53:57.434Z,1017.71
2018-04-06T04:54:57.443Z,1017.67
2018-04-06T04:55:57.412Z,1017.69
2018-04-06T04:56:57.455Z,1017.66
2018-04-06T04:57:57.431Z,1017.63
2018-04-06T04:58:57.450Z,1017.63
2018-04-06T04:59:57.446Z,1017.61
2018-04-06T05:00:57.445Z,1017.61
2018-04-06T05:01:57.372Z,1017.61
2018-04-06T05:02:57.391Z,1017.64
2018-04-06T05:03:57.426Z,1017.61
2018-04-06T05:04:57.389Z,1017.56
2018-04-06T05:05:57.414Z,1017.62
2018-04-06T05:06:57.417Z,1017.57
2018-04-06T05:07:57.374Z,1017.63
2018-04-06T05:08:57.358Z,1017.63
2018-04-06T05:09:57.390Z,1017.66
2018-04-06T05:10:57.408Z,1017.68
2018-04-06T05:11:57.377Z,1017.69
2018-04-06T05:12:57.374Z,1017.69
2018-04-06T05:13:57.618Z,1017.69
2018-04-06T05:14:57.370Z,1017.71
2018-04-06T05:15:57.360Z,1017.66
2018-04-06T05:16:57.347Z,1017.70
2018-04-06T05:17:57.354Z,1017.68
2018-04-06T05:18:57.375Z,1017.68
2018-04-06T05:19:57.398Z,1017.65
2018-04-06T05:20:57.336Z,1017.66
2018-04-06T05:21:57.358Z,1017.69
2018-04-06T05:22:57.354Z,1017.71
2018-04-06T05:23:57.340Z,1017.70
2018-04-06T05:24:57.331Z,1017.72
2018-04-06T05:25:57.339Z,1017.71
2018-04-06T05:26:57.337Z,1017.70
2018-04-06T05:27:57.356Z,1017.64
2018-04-06T05:28:57.360Z,1017.63
2018-04-06T05:29:57.304Z,1017.62
2018-04-06T05:30:57.295Z,1017.63
2018-04-06T05:31:57.323Z,1017.66
2018-04-06T05:32:57.401Z,1017.66
2018-04-06T05:33:57.297Z,1017.70
2018-04-06T05:34:57.327Z,1017.69
2018-04-06T05:35:57.318Z,1017.70
2018-04-06T05:36:57.304Z,1017.71
2018-04-06T05:37:57.773Z,1017.76
2018-04-06T05:38:57.304Z,1017.74
2018-04-06T05:39:57.277Z,1017.73
2018-04-06T05:40:57.336Z,1017.75
2018-04-06T05:41:57.313Z,1017.72
2018-04-06T05:42:57.325Z,1017.73
2018-04-06T05:43:57.453Z,1017.71
2018-04-06T05:44:57.291Z,1017.76
2018-04-06T05:45:57.312Z,1017.77
2018-04-06T05:46:57.286Z,1017.81
2018-04-06T05:47:57.278Z,1017.83
2018-04-06T05:48:57.270Z,1017.86
2018-04-06T05:49:57.305Z,1017.90
2018-04-06T05:50:57.778Z,1017.92
2018-04-06T05:51:57.250Z,1017.94
2018-04-06T05:52:57.331Z,1017.96
2018-04-06T05:53:57.240Z,1017.97
2018-04-06T05:54:57.259Z,1017.95
2018-04-06T05:55:57.276Z,1017.97
2018-04-06T05:56:57.278Z,1018.07
2018-04-06T05:57:57.340Z,1018.06
2018-04-06T05:58:57.288Z,1018.04
2018-04-06T05:59:57.257Z,1018.09
2018-04-06T06:00:57.290Z,1018.13
2018-04-06T06:01:57.288Z,1018.14
2018-04-06T06:02:57.299Z,1018.12
2018-04-06T06:03:57.307Z,1018.14
2018-04-06T06:04:57.234Z,1018.00
2018-04-06T06:05:57.243Z,1018.02
2018-04-06T06:06:57.311Z,1018.13
2018-04-06T06:07:57.299Z,1018.21
2018-04-06T06:08:57.291Z,1018.25
2018-04-06T06:09:57.345Z,1018.28
2018-04-06T06:10:57.290Z,1018.32
2018-04-06T06:11:57.275Z,1018.34
2018-04-06T06:12:57.314Z,1018.38
2018-04-06T06:13:57.310Z,1018.38
2018-04-06T06:14:57.269Z,1018.40
2018-04-06T06:15:57.290Z,1018.38
2018-04-06T06:16:57.280Z,1018.42
2018-04-06T06:17:57.300Z,1018.40
2018-04-06T06:18:57.306Z,1018.44
2018-04-06T06:19:57.269Z,1018.45
2018-04-06T06:20:57.261Z,1018.50
2018-04-06T06:21:57.328Z,1018.52
2018-04-06T06:22:57.241Z,1018.57
2018-04-06T06:23:57.273Z,1018.58
2018-04-06T06:24:57.331Z,1018.59
2018-04-06T06:25:57.285Z,1018.66
2018-04-06T06:26:57.782Z,1018.74
2018-04-06T06:27:57.306Z,1018.75
2018-04-06T06:28:57.285Z,1018.80
2018-04-06T06:29:57.284Z,1018.82
2018-04-06T06:30:57.315Z,1018.83
2018-04-06T06:31:57.258Z,1018.94
2018-04-06T06:32:57.328Z,1018.99
2018-04-06T06:33:57.279Z,1019.03
2018-04-06T06:34:57.303Z,1019.12
2018-04-06T06:35:57.303Z,1019.32
2018-04-06T06:36:57.286Z,1019.60
2018-04-06T06:37:57.334Z,1020.03
2018-04-06T06:38:57.325Z,1020.71
2018-04-06T06:39:57.300Z,1021.67
2018-04-06T06:40:57.411Z,1022.73
2018-04-06T06:42:02.093Z,1023.18
2018-04-06T06:47:02.131Z,1033.11
2018-04-06T06:48:02.034Z,1029.22
2018-04-06T06:49:02.044Z,1024.89
2018-04-06T06:50:02.045Z,1023.37
2018-04-06T06:51:02.044Z,1022.81
2018-04-06T06:52:02.058Z,1022.33
2018-04-06T06:53:02.139Z,1021.75
2018-04-06T06:54:02.045Z,1021.46
2018-04-06T06:55:02.061Z,1021.63
2018-04-06T06:56:02.068Z,1021.39
2018-04-06T06:57:02.062Z,1020.88
2018-04-06T06:58:02.098Z,1020.21
2018-04-06T06:59:02.061Z,1020.07
2018-04-06T07:00:02.066Z,1020.30
2018-04-06T07:01:02.062Z,1020.52
2018-04-06T07:02:02.073Z,1020.46
2018-04-06T07:03:03.008Z,1020.20
2018-04-06T07:04:02.093Z,1019.87
2018-04-06T07:05:02.129Z,1019.88
2018-04-06T07:06:02.100Z,1020.03
2018-04-06T07:07:02.099Z,1020.11
2018-04-06T07:08:02.094Z,1020.01
2018-04-06T07:09:02.126Z,1019.92
2018-04-06T07:10:02.102Z,1019.89
2018-04-06T07:11:02.098Z,1019.81
2018-04-06T07:12:02.120Z,1019.70
2018-04-06T07:13:02.120Z,1019.64
2018-04-06T07:14:02.167Z,1019.66
2018-04-06T07:15:02.132Z,1019.76
2018-04-06T07:16:02.220Z,1019.99
2018-04-06T07:17:02.162Z,1020.08
2018-04-06T07:18:02.136Z,1019.85
2018-04-06T07:19:03.005Z,1019.65
2018-04-06T07:20:02.146Z,1019.62
2018-04-06T07:21:02.147Z,1019.74
2018-04-06T07:22:02.174Z,1019.88
2018-04-06T07:23:02.173Z,1019.84
2018-04-06T07:24:02.240Z,1020.02
2018-04-06T07:25:02.171Z,1020.12
2018-04-06T07:26:02.198Z,1020.05
2018-04-06T07:27:03.093Z,1019.96
2018-04-06T07:28:02.207Z,1019.96
2018-04-06T07:29:02.203Z,1020.15
2018-04-06T07:30:02.232Z,1020.34
2018-04-06T07:31:02.197Z,1020.42
2018-04-06T07:32:02.237Z,1020.30
2018-04-06T07:33:02.227Z,1020.19
2018-04-06T07:34:02.209Z,1020.35
2018-04-06T07:35:02.253Z,1020.64
2018-04-06T07:36:03.058Z,1020.66
2018-04-06T07:37:02.268Z,1020.76
2018-04-06T07:38:02.240Z,1021.28
2018-04-06T07:39:02.247Z,1021.98
2018-04-06T07:40:02.257Z,1021.94
2018-04-06T07:41:02.255Z,1021.16
2018-04-06T07:42:02.256Z,1020.18
2018-04-06T07:43:02.269Z,1019.52
2018-04-06T07:44:02.304Z,1019.16
2018-04-06T07:45:02.277Z,1019.03
2018-04-06T07:46:02.289Z,1019.02
2018-04-06T07:47:02.438Z,1019.01
2018-04-06T07:48:02.314Z,1018.94
2018-04-06T07:49:02.296Z,1018.94
2018-04-06T07:50:02.330Z,1018.98
2018-04-06T07:51:02.306Z,1019.04
2018-04-06T07:52:02.327Z,1019.24
2018-04-06T07:53:02.352Z,1019.70
2018-04-06T07:54:02.353Z,1020.07
2018-04-06T07:55:02.340Z,1020.05
2018-04-06T07:56:02.364Z,1020.26
2018-04-06T07:57:02.525Z,1020.58
2018-04-06T07:58:02.355Z,1020.66
2018-04-06T07:59:02.376Z,1020.56
2018-04-06T08:00:02.586Z,1020.56
2018-04-06T08:01:02.415Z,1020.74
2018-04-06T08:02:02.400Z,1020.86
2018-04-06T08:03:02.416Z,1020.92
2018-04-06T08:04:02.399Z,1020.89
2018-04-06T08:05:02.412Z,1021.03
2018-04-06T08:06:02.454Z,1021.02
2018-04-06T08:07:02.460Z,1020.99
2018-04-06T08:08:02.449Z,1020.93
2018-04-06T08:09:02.455Z,1021.22
2018-04-06T08:10:02.466Z,1021.70
2018-04-06T08:11:02.464Z,1021.77
2018-04-06T08:12:02.486Z,1021.74
2018-04-06T08:13:03.174Z,1021.91
2018-04-06T08:14:03.194Z,1022.10
2018-04-06T08:15:02.543Z,1022.30
2018-04-06T08:16:02.496Z,1022.38
2018-04-06T08:17:02.506Z,1022.48
2018-04-06T08:18:02.646Z,1022.43
2018-04-06T08:19:02.558Z,1022.39
2018-04-06T08:20:02.661Z,1022.68
2018-04-06T08:21:02.565Z,1022.64
2018-04-06T08:22:02.567Z,1023.14
2018-04-06T08:23:02.589Z,1023.55
2018-04-06T08:24:02.578Z,1023.59
2018-04-06T08:25:02.588Z,1023.77
2018-04-06T08:26:02.574Z,1023.78
2018-04-06T08:27:02.594Z,1023.87
2018-04-06T08:28:02.640Z,1024.49
2018-04-06T08:29:02.736Z,1024.43
2018-04-06T08:30:02.678Z,1024.41
2018-04-06T08:31:02.658Z,1024.85
2018-04-06T08:32:02.651Z,1024.89
2018-04-06T08:33:03.668Z,1025.23
2018-04-06T08:34:02.675Z,1025.55
2018-04-06T08:35:02.675Z,1025.26
2018-04-06T08:36:02.707Z,1024.93
2018-04-06T08:37:02.694Z,1025.35
2018-04-06T08:38:03.560Z,1025.79
2018-04-06T08:39:02.725Z,1025.24
2018-04-06T08:40:02.739Z,1025.74
2018-04-06T08:41:02.759Z,1026.12
2018-04-06T08:42:02.739Z,1025.27
2018-04-06T08:43:02.750Z,1025.71
2018-04-06T08:44:03.557Z,1026.14
2018-04-06T08:45:02.786Z,1026.08
2018-04-06T08:46:02.841Z,1026.17
2018-04-06T08:47:02.809Z,1026.23
2018-04-06T08:48:03.601Z,1025.73
2018-04-06T08:49:02.841Z,1025.48
2018-04-06T08:50:02.820Z,1025.15
2018-04-06T08:51:02.836Z,1024.64
2018-04-06T08:52:03.559Z,1024.59
2018-04-06T08:53:02.860Z,1024.41
2018-04-06T08:54:02.870Z,1023.97
2018-04-06T08:55:02.875Z,1023.46
2018-04-06T08:56:02.897Z,1023.48
2018-04-06T08:57:02.950Z,1023.00
2018-04-06T08:58:02.950Z,1022.70
2018-04-06T08:59:02.929Z,1023.33
2018-04-06T09:00:02.942Z,1023.58
2018-04-06T09:01:02.966Z,1023.39
2018-04-06T09:02:03.063Z,1023.21
2018-04-06T09:03:02.982Z,1023.11
2018-04-06T09:04:02.996Z,1023.19
2018-04-06T09:05:03.040Z,1023.11
2018-04-06T09:06:03.065Z,1023.20
2018-04-06T09:07:03.041Z,1023.14
2018-04-06T09:08:03.058Z,1023.05
2018-04-06T09:09:03.080Z,1022.63
2018-04-06T09:10:03.069Z,1022.62
2018-04-06T09:11:03.123Z,1023.11
2018-04-06T09:12:03.211Z,1023.00
2018-04-06T09:13:03.090Z,1022.83
2018-04-06T09:14:03.165Z,1022.49
2018-04-06T09:15:04.097Z,1022.61
2018-04-06T09:16:03.260Z,1022.76
2018-04-06T09:17:03.202Z,1022.60
2018-04-06T09:18:03.222Z,1022.35
2018-04-06T09:19:03.267Z,1022.62
2018-04-06T09:20:03.284Z,1022.67
2018-04-06T09:21:03.241Z,1022.49
2018-04-06T09:22:03.218Z,1022.14
2018-04-06T09:23:03.284Z,1021.54
2018-04-06T09:24:03.260Z,1021.22
2018-04-06T09:25:03.273Z,1021.55
2018-04-06T09:26:03.324Z,1021.44
2018-04-06T09:27:03.277Z,1021.10
2018-04-06T09:28:03.358Z,1020.93
2018-04-06T09:29:03.311Z,1020.93
2018-04-06T09:30:03.316Z,1021.01
2018-04-06T09:31:03.363Z,1020.76
2018-04-06T09:32:03.385Z,1020.62
2018-04-06T09:33:03.397Z,1020.44
2018-04-06T09:34:03.366Z,1020.28
2018-04-06T09:35:03.379Z,1020.29
2018-04-06T09:36:03.398Z,1020.19
2018-04-06T09:37:03.429Z,1020.02
2018-04-06T09:38:03.481Z,1019.94
2018-04-06T09:39:03.454Z,1019.78
2018-04-06T09:40:03.467Z,1019.63
2018-04-06T09:41:03.462Z,1019.36
2018-04-06T09:42:03.484Z,1019.24
2018-04-06T09:43:03.512Z,1019.17
2018-04-06T09:44:04.113Z,1018.98
2018-04-06T09:45:03.517Z,1019.02
2018-04-06T09:46:03.558Z,1018.91
2018-04-06T09:47:03.566Z,1018.77
2018-04-06T09:48:03.559Z,1018.76
2018-04-06T09:49:03.595Z,1018.64
2018-04-06T09:50:03.639Z,1018.64
2018-04-06T09:51:03.601Z,1018.53
2018-04-06T09:52:03.701Z,1018.48
2018-04-06T09:53:03.670Z,1018.46
2018-04-06T09:54:03.654Z,1018.48
2018-04-06T09:55:03.713Z,1018.42
2018-04-06T09:56:03.720Z,1018.44
2018-04-06T09:57:03.710Z,1018.49
2018-04-06T09:58:03.725Z,1018.59
2018-04-06T09:59:03.725Z,1018.48
2018-04-06T10:00:03.766Z,1018.45
2018-04-06T10:01:03.779Z,1018.39
2018-04-06T10:02:03.763Z,1018.48
2018-04-06T10:03:03.787Z,1018.42
2018-04-06T10:04:03.785Z,1018.45
2018-04-06T10:05:03.817Z,1018.43
2018-04-06T10:06:03.839Z,1018.45
2018-04-06T10:07:04.613Z,1018.48
2018-04-06T10:08:03.876Z,1018.54
2018-04-06T10:09:03.885Z,1018.62
2018-04-06T10:10:03.890Z,1018.84
2018-04-06T10:11:03.908Z,1018.83
2018-04-06T10:12:03.920Z,1018.80
2018-04-06T10:13:03.965Z,1018.72
2018-04-06T10:14:03.943Z,1018.66
2018-04-06T10:15:03.952Z,1018.54
2018-04-06T10:16:04.006Z,1018.63
2018-04-06T10:17:04.090Z,1018.62
2018-04-06T10:18:06.826Z,1018.37
2018-04-06T10:19:04.027Z,1018.28
2018-04-06T10:20:04.031Z,1018.29
2018-04-06T10:21:04.054Z,1018.33
2018-04-06T10:22:04.129Z,1018.46
2018-04-06T10:23:04.089Z,1018.46
2018-04-06T10:24:04.172Z,1018.44
2018-04-06T10:25:04.239Z,1018.44
2018-04-06T10:26:04.182Z,1018.38
2018-04-06T10:27:04.186Z,1018.31
2018-04-06T10:28:04.223Z,1018.26
2018-04-06T10:29:04.319Z,1018.24
2018-04-06T10:30:04.291Z,1018.21
2018-04-06T10:31:04.281Z,1018.16
2018-04-06T10:32:05.131Z,1018.11
2018-04-06T10:33:04.274Z,1018.10
2018-04-06T10:34:04.312Z,1018.08
2018-04-06T10:35:04.271Z,1018.09
2018-04-06T10:36:04.293Z,1018.04
2018-04-06T10:37:04.297Z,1017.96
2018-04-06T10:38:04.312Z,1017.95
2018-04-06T10:39:04.386Z,1017.99
2018-04-06T10:40:04.357Z,1017.87
2018-04-06T10:41:04.370Z,1017.76
2018-04-06T10:42:04.377Z,1017.80
2018-04-06T10:43:04.397Z,1017.80
2018-04-06T10:44:04.417Z,1017.76
2018-04-06T10:45:04.477Z,1017.68
2018-04-06T10:46:04.495Z,1017.67
2018-04-06T10:47:04.472Z,1017.69
2018-04-06T10:48:04.473Z,1017.75
2018-04-06T10:49:04.516Z,1017.68
2018-04-06T10:50:04.507Z,1017.65
2018-04-06T10:51:04.526Z,1017.66
2018-04-06T10:52:04.574Z,1017.75
2018-04-06T10:53:04.563Z,1017.59
2018-04-06T10:54:04.570Z,1017.51
2018-04-06T10:55:04.638Z,1017.49
2018-04-06T10:56:04.618Z,1017.43
2018-04-06T10:57:04.637Z,1017.38
2018-04-06T10:58:04.639Z,1017.36
2018-04-06T10:59:04.686Z,1017.40
2018-04-06T11:00:04.693Z,1017.41
2018-04-06T11:01:04.702Z,1017.46
2018-04-06T11:02:04.718Z,1017.41
2018-04-06T11:03:04.718Z,1017.46
2018-04-06T11:04:04.726Z,1017.37
2018-04-06T11:05:04.754Z,1017.52
2018-04-06T11:06:04.808Z,1017.42
2018-04-06T11:07:04.863Z,1017.32
2018-04-06T11:08:04.819Z,1017.29
2018-04-06T11:09:04.810Z,1017.29
2018-04-06T11:10:04.852Z,1017.26
2018-04-06T11:11:04.849Z,1017.34
2018-04-06T11:12:04.865Z,1017.28
2018-04-06T11:13:04.881Z,1017.23
2018-04-06T11:14:04.887Z,1017.19
2018-04-06T11:15:04.896Z,1016.89
2018-04-06T11:16:04.930Z,1016.53
2018-04-06T11:17:04.967Z,1016.42
2018-04-06T11:18:04.968Z,1016.35
2018-04-06T11:19:05.009Z,1016.28
2018-04-06T11:20:05.025Z,1016.30
2018-04-06T11:21:04.981Z,1016.27
2018-04-06T11:22:05.016Z,1016.15
2018-04-06T11:23:05.068Z,1016.18
2018-04-06T11:26:05.065Z,1016.07
2018-04-06T11:51:40.564Z,1015.44
2018-04-06T11:52:41.929Z,1015.46
2018-04-06T11:53:41.728Z,1015.44
2018-04-06T11:55:56.147Z,1015.42
2018-04-06T11:56:40.316Z,1015.49
2018-04-06T11:57:40.403Z,1015.36
2018-04-06T11:58:40.589Z,1015.42
2018-04-06T11:59:40.378Z,1015.46
2018-04-06T12:00:40.307Z,1015.42
2018-04-06T12:01:40.334Z,1015.37
2018-04-06T12:02:40.312Z,1015.43
2018-04-06T12:03:40.329Z,1015.38
2018-04-06T12:04:40.331Z,1015.41
2018-04-06T12:05:40.429Z,1015.37
2018-04-06T12:06:40.358Z,1015.37
2018-04-06T12:09:44.555Z,1015.32
2018-04-06T12:10:14.059Z,1015.25
2018-04-06T12:12:06.213Z,1015.19
2018-04-06T12:13:06.535Z,1015.18
2018-04-06T12:14:06.161Z,1015.17
2018-04-06T12:15:06.175Z,1015.10
2018-04-06T12:16:06.199Z,1015.08
2018-04-06T12:17:06.180Z,1015.05
2018-04-06T12:18:06.209Z,1015.12
2018-04-06T12:19:06.226Z,1015.04
2018-04-06T12:20:06.228Z,1014.97
2018-04-06T12:21:06.219Z,1015.06
2018-04-06T12:22:06.222Z,1014.97
2018-04-06T12:23:06.245Z,1014.98
2018-04-06T12:24:06.212Z,1015.03
2018-04-06T12:25:06.269Z,1014.96
2018-04-06T12:26:06.213Z,1014.93
2018-04-06T12:27:06.266Z,1014.91
2018-04-06T12:28:06.228Z,1014.99
2018-04-06T12:29:06.243Z,1014.97
2018-04-06T12:30:06.228Z,1014.86
2018-04-06T12:31:06.260Z,1014.86
2018-04-06T12:32:06.238Z,1014.91
2018-04-06T12:33:06.238Z,1014.89
2018-04-06T12:34:06.256Z,1014.89
2018-04-06T12:35:06.263Z,1014.86
2018-04-06T12:36:06.271Z,1014.73
2018-04-06T12:37:06.257Z,1014.76
2018-04-06T12:38:06.275Z,1014.73
2018-04-06T12:39:06.288Z,1014.75
2018-04-06T12:40:06.265Z,1014.77